Ride Results

Gundagai (30-04-2017)
Ride distance: 80.0 km

Outcomes - Gundagai (30-04-2017)
Division No. of Entries Retired / DNE Completed Withdrawn Ineligible V/O Percentage Completed
HW 10 - 9 - - 1 90.00%
MW 25 - 21 1 - 2 84.00%
LW 21 - 16 3 - 2 76.19%
JN 5 - 5 - - - 100.00%
Totals 61 - 51 4 - 5 83.61%
Results - Gundagai (30-04-2017)
No. Rider Horse Place Time Leg Speeds Total
Km/Hr
H/R bpm
Heavyweight
43 Andrew Bailey Prince Nakeel Spa 1 (BC) 4:43:00 16.7, 17.1 16.96 31, 43, 44 (Avg:43)
52 Ken Bradley Littlebanks Magic Wings 2 6:40:00 12.9, 11.1 12.00 34, 44, 49 (Avg:46)
62 Evan Drain-Shepheard Thee Prophecy 3 7:00:00 12.5, 10.4 11.43 38, 44, 46 (Avg:45)
15 Mitchell Ravallion Littlebanks Muscles 3 7:00:00 12.5, 10.4 11.43 42, 49, 60 (Avg:54)
27 Renee Gough Jon De Le Hazad 5 7:13:00 12.0, 10.2 11.09 31, 39, 50 (Avg:44)
60 Heidi Wade Love In The Mist 6 7:50:00 11.3, 9.3 10.21 36, 41, 53 (Avg:47)
10 Con Bouzianis Conderosa Zaheera 7 7:53:00 11.3, 9.1 10.15 36, 39, 42 (Avg:40)
31 Stuart Lymbery Baranne Tu-Shay 7 7:53:00 10.3, 9.9 10.15 38, 41, 44 (Avg:42)
49 Keith Nagle Burren-Dah Smokin Joe 9 8:30:00 9.7, 9.0 9.41 29, 37, 45 (Avg:41)
65 Marty Moran Forest Dale Xcalibur Lame L2 0:00:00 16.1, 13.9 - 45, 43, 56 (Avg:49)
Middleweight
61 Jenny Shepheard Currowan Jazzy 1 4:30:00 18.1, 17.3 17.78 38, 46, 45 (Avg:45)
29 April Newman Taeaura Shayarnah (BC) 5:04:00 - 15.79 32, 51, 48 (Avg:49)
40 Kerry Alderton Madrigal Park Larbonetta 3 5:43:00 15.8, 12.4 13.99 39, 47, 49 (Avg:48)
19 Talea Hasko-Stewart Blake's Heaven Summer Reign 4 5:48:00 14.6, 13.0 13.79 34, 41, 42 (Avg:41)
16 Anita Ashby Lentara Park Heather 5 6:13:00 14.3, 11.6 12.87 39, 42, 56 (Avg:49)
13 Ian Curtis Marat MA 5 6:13:00 14.3, 11.6 12.87 40, 44, 48 (Avg:46)
12 Jenny Berg Sienna War Crimes 7 6:56:00 12.5, 10.6 11.54 41, 41, 52 (Avg:46)
26 Scott Peters Castlebar Icon 8 6:59:00 12.1, 10.8 11.46 38, 44, 49 (Avg:46)
54 Marisa Levitt Scarlet Oaks Faiza 9 7:09:00 13.3, 9.6 11.19 31, 43, 48 (Avg:45)
28 Charlene Malone Jon De Le Sophie 10 7:13:00 12.0, 10.2 11.09 29, 39, 52 (Avg:45)
14 John Symons Forest Dale Belle De Jour 11 7:17:00 13.1, 9.4 10.98 36, 40, 56 (Avg:48)
64 Bev Turner Coco Chanel 11 7:17:00 13.1, 9.4 10.98 42, 48, 48 (Avg:48)
41 Maddy Collins Castlebar Baccarat 13 7:36:00 11.0, 10.0 10.53 32, 44, 46 (Avg:45)
66 Christine Stomps El Mariachi 14 7:50:00 12.5, 8.6 10.21 42, 38, 54 (Avg:46)
33 Anne Lymbery Aloha Typic 15 7:53:00 10.3, 9.9 10.15 32, 40, 55 (Avg:47)
30 Sarah Lymbery Aloha Desert Glitter 15 7:53:00 10.3, 9.9 10.15 29, 35, 42 (Avg:38)
7 Tom Bouzianis Phoenix CE 17 7:58:00 11.3, 8.9 10.04 31, 43, 60 (Avg:51)
46 Noni Seagrim Coolinda Park Words of Wisdom 18 8:03:00 10.3, 9.5 9.94 39, 42, 53 (Avg:47)
45 Erin Steinbacher Panache 18 8:03:00 10.3, 9.5 9.94 36, 35, 42 (Avg:38)
53 Chrisovl Morley Rocky Creek Sioux Dee Dee 20 8:10:00 10.9, 8.8 9.80 42, 47, 52 (Avg:49)
50 Leanne Hickson Kharbo 21 8:30:00 9.7, 9.0 9.41 36, 45, 46 (Avg:45)
48 Jennifer Rogers Shahira I.C.U. 21 8:30:00 9.7, 9.0 9.41 29, 31, 40 (Avg:35)
37 Bruce Carter Mitanni Hairan Heart Rate L2 0:00:00 10.0, 9.2 - 35, 46, 68 (Avg:57)
56 Daniel Noble Sbara Oscar Heart Rate L2 0:00:00 10.9, 8.9 - 34, 40, 65 (Avg:52)
21 Erika Lindsay Kintamani Silver Motif Withdrawn L1 0:00:00 - - 35, 45 (Avg:45)
Lightweight
63 Roz Edmunds Everon Park Apollo 1 5:43:00 16.5, 12.1 13.99 42, 41, 56 (Avg:48)
1 Shirley Clark Oso Zoltan 2 5:47:00 14.7, 13.0 13.83 36, 42, 50 (Avg:46)
2 Ellen Vine Castlebar What's The Goss 2 (BC) 5:47:00 14.7, 13.0 13.83 32, 45, 48 (Avg:46)
17 Adeline Gibson Brookleigh Shiralee 4 5:48:00 14.6, 13.0 13.79 31, 41, 43 (Avg:42)
20 Fia Hasko-Stewart Blake's Heaven Venus 4 5:48:00 14.6, 13.0 13.79 36, 41, 47 (Avg:44)
36 Marijke Visser Wybalena Lodge Aflirt 4 5:48:00 14.6, 13.0 13.79 35, 46, 50 (Avg:48)
39 Miki Bell Eminem Vyper 7 6:55:00 12.5, 10.7 11.57 34, 38, 54 (Avg:46)
32 Julie Hooper Hirstglen Probably 7 6:55:00 12.5, 10.7 11.57 39, 47, 56 (Avg:51)
4 Amelia Napier Oso Bettina 9 6:58:00 12.3, 10.7 11.48 32, 46, 46 (Avg:46)
51 Louise Wright Alert Mi 10 7:10:00 12.9, 9.7 11.16 40, 48, 48 (Avg:48)
5 Cherry Cummins Cabrillas Heir 11 7:39:00 11.9, 9.3 10.46 38, 43, 45 (Avg:44)
8 Sara Pellegrini Conderosa Ambrosio 12 7:53:00 11.3, 9.1 10.15 32, 41, 43 (Avg:42)
47 Jodi Dewick Coolinda Park Sheeza Doll 13 8:03:00 10.3, 9.5 9.94 38, 42, 48 (Avg:45)
38 Vicki Mathew Cearadale Hanaani 14 8:18:00 10.0, 9.2 9.64 38, 54, 60 (Avg:57)
25 Courtney Chapman Kintamani Katarina 15 8:30:00 9.3, 9.4 9.41 33, 43, 45 (Avg:44)
24 Catherine McDonald Kintamani Kimbra 15 8:30:00 9.3, 9.4 9.41 46, 46, 49 (Avg:47)
42 Kim Butt Castlebar Coruba Withdrawn L2 0:00:00 - - 36, 35 (Avg:35)
58 Vetea Facchini Yinbilliko Shaka Zulu Heart Rate L2 0:00:00 11.3, 9.3 - 37, 44, 69 (Avg:56)
55 Kim Noble Springridge Red Astaire Metabolics moderate L2 0:00:00 10.9, 2.9 - 48, 54 (Avg:54)
3 Sorsha Stuart-Rokvic Oso Evita Withdrawn L1 0:00:00 - - 38, 45 (Avg:45)
34 Kristie Wright Cooroora Allyjah Withdrawn L1 0:00:00 - - 33, 43 (Avg:43)
Junior
18 Levi Robinson Karumba Beamish 1 (BC) 6:40:00 13.4, 10.8 12.00 33, 41, 44 (Avg:42)
11 Bree Archer Future Dream Gypsy 2 7:39:00 11.9, 9.3 10.46 34, 48, 51 (Avg:49)
6 Tahnaya Mercieca AM Final Cascade 2 7:39:00 11.9, 9.3 10.46 34, 55, 44 (Avg:49)
59 Lily Wheeler Yinbilliko Jackson 4 7:50:00 11.3, 9.3 10.21 36, 44, 49 (Avg:46)
57 Alison Noble Springridge Elite 5 8:06:00 10.9, 8.9 9.88 33, 42, 53 (Avg:47)